Time;durP1;ratioP1;P1;durP2;ratioP2;P2;SDS_P1;SDS_P2;PMS_P1;PMS_P2;Temp;Humidity;BMP_temperature;BMP_pressure;BME280_temperature;BME280_humidity;BME280_pressure;Samples;Min_cycle;Max_cycle;Signal;HPM_P1;HPM_P2
2022/07/06 00:01:38;;;;;;;1.55;1.05;;;20.20;99.90;;;;;;5047931;28;20604;-72
2022/07/06 00:04:04;;;;;;;2.22;1.10;;;20.20;99.90;;;;;;5044720;28;20036;-75
2022/07/06 00:06:30;;;;;;;1.10;1.00;;;20.20;99.90;;;;;;5041976;28;20036;-74
2022/07/06 00:08:56;;;;;;;2.53;1.20;;;20.20;99.90;;;;;;5047797;28;20036;-75
2022/07/06 00:11:22;;;;;;;1.65;1.05;;;20.30;99.90;;;;;;5047162;28;20032;-74
2022/07/06 00:13:47;;;;;;;4.45;1.30;;;20.30;99.90;;;;;;5032292;28;20076;-73
2022/07/06 00:16:13;;;;;;;3.30;1.10;;;20.20;99.90;;;;;;5049787;28;20140;-74
2022/07/06 00:18:39;;;;;;;1.88;1.13;;;20.10;99.90;;;;;;5044649;28;20086;-73
2022/07/06 00:21:05;;;;;;;0.75;0.75;;;20.20;99.90;;;;;;5048829;28;20040;-74
2022/07/06 00:23:30;;;;;;;1.75;1.10;;;20.10;99.90;;;;;;5040994;28;20693;-73
2022/07/06 00:25:56;;;;;;;1.67;0.95;;;20.10;99.90;;;;;;5049316;28;20413;-74
2022/07/06 00:28:22;;;;;;;1.65;1.15;;;20.00;99.90;;;;;;5051044;28;20040;-73
2022/07/06 00:30:49;;;;;;;1.10;1.00;;;20.00;99.90;;;;;;5049014;28;20045;-70
2022/07/06 00:33:14;;;;;;;2.47;0.80;;;20.00;99.90;;;;;;5042188;28;20048;-74
2022/07/06 00:35:40;;;;;;;3.45;1.15;;;20.00;99.90;;;;;;5048604;28;20496;-73
2022/07/06 00:38:05;;;;;;;1.70;1.13;;;20.10;99.90;;;;;;5046285;28;20642;-74
2022/07/06 00:40:31;;;;;;;2.13;0.90;;;20.10;99.90;;;;;;5049137;28;20119;-74
2022/07/06 00:42:57;;;;;;;1.48;0.82;;;20.10;99.90;;;;;;5043078;28;20045;-75
2022/07/06 00:45:23;;;;;;;1.20;1.10;;;20.00;99.90;;;;;;5031645;28;20047;-75
2022/07/06 00:47:49;;;;;;;1.40;1.08;;;20.00;99.90;;;;;;5046094;28;20052;-74
2022/07/06 00:50:22;;;;;;;1.08;1.00;;;19.90;99.90;;;;;;5048602;28;20028;-74
2022/07/06 00:52:59;;;;;;;0.88;0.88;;;19.80;99.90;;;;;;5048018;28;20044;-76
2022/07/06 00:55:30;;;;;;;1.13;0.80;;;19.80;99.90;;;;;;5053297;28;20853;-70
2022/07/06 00:57:56;;;;;;;1.27;1.00;;;19.80;99.90;;;;;;5047267;28;20690;-74
2022/07/06 01:00:27;;;;;;;1.40;0.80;;;19.70;99.90;;;;;;5033859;28;20033;-73
2022/07/06 01:02:53;;;;;;;1.83;1.00;;;19.70;99.90;;;;;;5045908;28;23961;-74
2022/07/06 01:05:20;;;;;;;2.35;0.60;;;19.70;99.90;;;;;;5052006;28;20040;-74
2022/07/06 01:07:48;;;;;;;0.80;0.68;;;19.80;99.90;;;;;;5053134;28;20589;-72
2022/07/06 01:10:16;;;;;;;1.33;0.70;;;19.80;99.90;;;;;;5051304;28;20190;-73
2022/07/06 01:12:43;;;;;;;2.50;0.70;;;19.60;99.90;;;;;;5034390;28;20676;-73
2022/07/06 01:15:12;;;;;;;1.05;0.70;;;19.50;99.90;;;;;;5052376;28;20556;-73
2022/07/06 01:17:41;;;;;;;2.63;1.15;;;19.50;99.90;;;;;;5044459;28;20131;-72
2022/07/06 01:20:14;;;;;;;1.45;0.80;;;19.60;99.90;;;;;;5048666;28;20094;-73
2022/07/06 01:22:41;;;;;;;0.80;0.80;;;19.50;99.90;;;;;;5035680;28;20496;-73
2022/07/06 01:25:08;;;;;;;0.80;0.80;;;19.50;99.90;;;;;;5049956;28;20032;-69
2022/07/06 01:27:38;;;;;;;1.25;0.90;;;19.60;99.90;;;;;;5050639;28;20133;-73
2022/07/06 01:30:09;;;;;;;1.50;0.88;;;19.50;99.90;;;;;;5053361;28;20052;-69
2022/07/06 01:32:35;;;;;;;0.80;0.80;;;19.40;99.90;;;;;;5049205;28;20437;-74
2022/07/06 01:35:03;;;;;;;1.38;0.88;;;19.30;99.90;;;;;;5051930;28;20571;-73
2022/07/06 01:37:28;;;;;;;1.60;0.70;;;19.30;99.90;;;;;;5051257;28;20120;-72
2022/07/06 01:39:59;;;;;;;1.52;1.00;;;19.40;99.90;;;;;;5052551;28;20039;-75
2022/07/06 01:42:24;;;;;;;1.45;0.75;;;19.40;99.90;;;;;;5054930;28;20040;-73
2022/07/06 01:44:50;;;;;;;3.03;1.13;;;19.40;99.90;;;;;;5052928;28;20056;-75
2022/07/06 01:47:16;;;;;;;0.82;0.80;;;19.30;99.90;;;;;;5036038;28;20033;-74
2022/07/06 01:49:42;;;;;;;1.58;0.80;;;19.30;99.90;;;;;;5051259;28;20028;-73
2022/07/06 01:52:07;;;;;;;0.50;0.50;;;19.20;99.90;;;;;;5047866;28;20554;-74
2022/07/06 01:54:33;;;;;;;3.05;0.90;;;19.30;99.90;;;;;;5050940;28;20467;-74
2022/07/06 01:56:59;;;;;;;2.00;0.73;;;19.40;99.90;;;;;;5052240;28;20025;-71
2022/07/06 01:59:24;;;;;;;0.63;0.50;;;19.50;99.90;;;;;;5051158;28;20519;-72
2022/07/06 02:01:50;;;;;;;1.08;0.80;;;19.40;99.90;;;;;;5044655;28;20032;-73
2022/07/06 02:04:16;;;;;;;0.55;0.55;;;19.30;99.90;;;;;;5046177;28;20076;-73
2022/07/06 02:06:41;;;;;;;0.68;0.52;;;19.30;99.90;;;;;;5047530;28;20509;-73
2022/07/06 02:09:07;;;;;;;2.92;0.77;;;19.40;99.90;;;;;;5033667;28;20041;-73
2022/07/06 02:11:33;;;;;;;1.10;0.70;;;19.40;99.90;;;;;;5047124;28;20055;-73
2022/07/06 02:13:58;;;;;;;0.93;0.93;;;19.50;99.90;;;;;;5047951;28;20390;-73
2022/07/06 02:16:24;;;;;;;4.50;0.90;;;19.40;99.90;;;;;;5042046;28;20075;-72
2022/07/06 02:18:49;;;;;;;2.15;0.68;;;19.40;99.90;;;;;;5047170;28;20033;-74
2022/07/06 02:21:15;;;;;;;0.68;0.68;;;19.30;99.90;;;;;;5045046;28;20048;-74
2022/07/06 02:23:41;;;;;;;3.83;1.30;;;19.30;99.90;;;;;;5044974;28;20033;-73
2022/07/06 02:26:07;;;;;;;1.52;0.82;;;19.40;99.90;;;;;;5044408;28;20114;-74
2022/07/06 02:28:33;;;;;;;0.60;0.50;;;19.30;99.90;;;;;;5045392;28;20040;-74
2022/07/06 02:30:58;;;;;;;0.65;0.60;;;19.40;99.90;;;;;;5027961;28;20113;-74
2022/07/06 02:33:24;;;;;;;0.35;0.35;;;19.40;99.90;;;;;;5045407;28;20091;-73
2022/07/06 02:35:50;;;;;;;1.58;0.40;;;19.50;99.90;;;;;;5044951;28;20036;-73
2022/07/06 02:38:16;;;;;;;1.67;0.55;;;19.50;99.90;;;;;;5046717;28;20425;-71
2022/07/06 02:40:42;;;;;;;0.90;0.50;;;19.60;99.90;;;;;;5040282;28;20555;-71
2022/07/06 02:43:08;;;;;;;0.88;0.80;;;19.60;99.90;;;;;;5051068;28;20045;-73
2022/07/06 02:45:34;;;;;;;0.80;0.75;;;19.60;99.90;;;;;;5042754;28;20472;-73
2022/07/06 02:47:59;;;;;;;0.63;0.50;;;19.50;99.90;;;;;;5034697;28;20501;-71
2022/07/06 02:50:25;;;;;;;0.80;0.50;;;19.50;99.90;;;;;;5029377;28;20044;-71
2022/07/06 02:52:52;;;;;;;1.65;0.90;;;19.50;99.90;;;;;;5045165;28;20048;-72
2022/07/06 02:55:17;;;;;;;0.85;0.70;;;19.50;99.90;;;;;;5040338;28;20119;-73
2022/07/06 02:57:43;;;;;;;0.70;0.70;;;19.50;99.90;;;;;;5047623;28;20098;-71
2022/07/06 03:00:10;;;;;;;1.17;0.65;;;19.50;99.90;;;;;;5043991;28;20385;-71
2022/07/06 03:02:36;;;;;;;1.75;0.70;;;19.40;99.90;;;;;;5047165;28;20044;-72
2022/07/06 03:05:01;;;;;;;1.55;0.60;;;19.40;99.90;;;;;;5048429;28;20033;-72
2022/07/06 03:07:27;;;;;;;1.85;0.68;;;19.40;99.90;;;;;;5044246;28;20032;-72
2022/07/06 03:09:53;;;;;;;0.85;0.73;;;19.40;99.90;;;;;;5042472;28;20048;-71
2022/07/06 03:12:18;;;;;;;3.50;0.90;;;19.40;99.90;;;;;;5044883;28;20122;-72
2022/07/06 03:14:44;;;;;;;1.20;0.68;;;19.40;99.90;;;;;;5042777;28;20037;-72
2022/07/06 03:17:10;;;;;;;3.50;0.85;;;19.40;99.90;;;;;;5045917;28;20063;-73
2022/07/06 03:19:35;;;;;;;3.03;0.88;;;19.40;99.90;;;;;;5046280;28;20074;-72
2022/07/06 03:22:01;;;;;;;2.90;1.10;;;19.40;99.90;;;;;;5031879;28;20037;-73
2022/07/06 03:24:27;;;;;;;5.75;0.88;;;19.40;99.90;;;;;;5042307;28;20039;-70
2022/07/06 03:26:53;;;;;;;1.95;0.93;;;19.20;99.90;;;;;;5044878;28;20036;-72
2022/07/06 03:29:20;;;;;;;1.10;1.00;;;19.00;99.90;;;;;;5030149;28;20041;-74
2022/07/06 03:31:46;;;;;;;3.20;1.30;;;18.90;99.90;;;;;;5044680;28;20036;-72
2022/07/06 03:34:12;;;;;;;3.70;1.20;;;18.80;99.90;;;;;;5047475;28;20369;-73
2022/07/06 03:36:38;;;;;;;2.45;1.58;;;18.70;99.90;;;;;;5044831;28;20028;-73
2022/07/06 03:39:04;;;;;;;3.10;1.40;;;18.40;99.90;;;;;;5051964;28;20035;-73
2022/07/06 03:41:30;;;;;;;1.63;1.10;;;18.30;99.90;;;;;;5047985;28;20029;-73
2022/07/06 03:43:55;;;;;;;1.75;1.00;;;18.40;99.90;;;;;;5047608;28;20112;-73
2022/07/06 03:46:21;;;;;;;1.33;1.23;;;18.50;99.90;;;;;;5041690;28;20044;-72
2022/07/06 03:48:46;;;;;;;1.73;1.15;;;18.50;99.90;;;;;;5047610;28;20024;-71
2022/07/06 03:51:12;;;;;;;1.35;1.25;;;18.40;99.90;;;;;;5048429;28;20464;-71
2022/07/06 03:53:38;;;;;;;1.27;1.17;;;18.50;99.90;;;;;;5050002;28;20040;-73
2022/07/06 03:58:48;;;;;;;2.83;0.80;;;18.90;99.90;;;;;;5051830;28;20067;-73
2022/07/06 04:01:14;;;;;;;3.97;0.93;;;19.00;99.90;;;;;;5046982;28;20459;-72
2022/07/06 04:03:40;;;;;;;1.63;1.10;;;19.10;99.90;;;;;;5047389;28;20028;-72
2022/07/06 04:06:05;;;;;;;1.38;0.90;;;19.20;99.90;;;;;;5031997;28;20033;-72
2022/07/06 04:08:31;;;;;;;3.08;1.10;;;19.30;99.90;;;;;;5051535;28;20108;-72
2022/07/06 04:10:57;;;;;;;3.38;1.00;;;19.40;99.90;;;;;;5047691;28;20126;-72
2022/07/06 04:13:23;;;;;;;2.42;1.20;;;19.40;99.90;;;;;;5046756;28;20048;-72
2022/07/06 04:15:49;;;;;;;2.65;1.25;;;19.50;99.90;;;;;;5029188;28;20135;-73
2022/07/06 04:18:14;;;;;;;3.03;1.27;;;19.50;99.90;;;;;;5044990;28;20047;-71
2022/07/06 04:20:40;;;;;;;7.30;1.65;;;19.50;99.90;;;;;;5046766;28;20029;-71
2022/07/06 04:23:06;;;;;;;3.63;1.83;;;19.50;99.90;;;;;;5047013;28;20043;-72
2022/07/06 04:25:31;;;;;;;2.05;1.50;;;19.50;99.90;;;;;;5044744;28;20060;-71
2022/07/06 04:27:57;;;;;;;1.30;1.20;;;19.30;99.90;;;;;;5050973;28;20036;-71
2022/07/06 04:30:22;;;;;;;2.65;1.45;;;19.20;99.90;;;;;;5046631;28;20052;-72
2022/07/06 04:32:48;;;;;;;2.00;1.70;;;19.10;99.90;;;;;;5046295;28;20025;-70
2022/07/06 04:35:14;;;;;;;3.22;1.73;;;19.00;99.90;;;;;;5045582;28;20045;-70
2022/07/06 04:37:39;;;;;;;5.90;1.83;;;19.00;99.90;;;;;;5032470;28;20115;-69
2022/07/06 04:40:05;;;;;;;3.70;1.70;;;18.90;99.90;;;;;;5046965;28;20032;-69
2022/07/06 04:42:31;;;;;;;2.03;1.70;;;18.80;99.90;;;;;;5046328;28;20062;-70
2022/07/06 04:44:57;;;;;;;2.72;1.98;;;18.80;99.90;;;;;;5042557;28;20041;-71
2022/07/06 04:47:22;;;;;;;4.03;1.80;;;18.90;99.90;;;;;;5048016;28;20032;-70
2022/07/06 04:49:48;;;;;;;4.80;2.30;;;19.10;99.90;;;;;;5043027;28;20041;-71
2022/07/06 04:52:14;;;;;;;5.32;1.83;;;19.20;99.90;;;;;;5031438;28;20698;-71
2022/07/06 04:54:39;;;;;;;2.50;1.60;;;19.30;99.90;;;;;;5039470;28;20454;-70
2022/07/06 04:57:05;;;;;;;3.47;2.28;;;19.40;99.90;;;;;;5046955;28;20059;-71
2022/07/06 04:59:31;;;;;;;1.83;1.73;;;19.40;99.90;;;;;;5048859;28;20040;-69
2022/07/06 05:01:56;;;;;;;2.13;1.80;;;19.50;99.90;;;;;;5052825;28;20044;-69
2022/07/06 05:04:23;;;;;;;1.48;1.38;;;19.60;99.90;;;;;;5050343;28;20536;-70
2022/07/06 05:06:49;;;;;;;1.35;1.20;;;19.60;99.90;;;;;;5054006;28;20045;-71
2022/07/06 05:09:15;;;;;;;2.05;1.95;;;19.80;99.90;;;;;;5051115;28;20040;-70
2022/07/06 05:11:41;;;;;;;3.13;1.67;;;19.90;99.90;;;;;;5049947;28;20414;-70
2022/07/06 05:14:07;;;;;;;3.15;1.90;;;20.00;99.90;;;;;;5052264;28;20056;-71
2022/07/06 05:16:33;;;;;;;1.77;1.52;;;20.10;99.90;;;;;;5052674;28;20065;-71
2022/07/06 05:18:58;;;;;;;2.22;1.85;;;20.20;99.90;;;;;;5053552;28;20064;-71
2022/07/06 05:21:24;;;;;;;1.65;1.40;;;20.30;99.90;;;;;;5049525;28;20091;-71
2022/07/06 05:23:50;;;;;;;1.55;1.45;;;20.40;99.90;;;;;;5056412;28;20052;-70
2022/07/06 05:26:16;;;;;;;1.42;1.33;;;20.60;99.90;;;;;;5036326;28;20187;-71
2022/07/06 05:28:41;;;;;;;1.50;1.40;;;20.80;99.90;;;;;;5051489;28;20033;-71
2022/07/06 05:31:07;;;;;;;2.35;1.40;;;20.90;99.90;;;;;;5051495;28;20166;-71
2022/07/06 05:33:33;;;;;;;3.70;1.20;;;21.10;99.90;;;;;;5035009;28;20136;-70
2022/07/06 05:35:58;;;;;;;1.50;1.40;;;21.20;99.90;;;;;;5051862;28;20041;-69
2022/07/06 05:38:24;;;;;;;6.75;1.20;;;21.30;99.90;;;;;;5049846;28;20045;-70
2022/07/06 05:40:50;;;;;;;1.30;1.20;;;21.50;99.90;;;;;;5053908;28;20040;-70
2022/07/06 05:43:17;;;;;;;1.30;1.10;;;21.70;99.90;;;;;;5042828;28;20032;-70
2022/07/06 05:45:43;;;;;;;1.70;1.60;;;21.80;99.90;;;;;;5046659;28;20048;-71
2022/07/06 05:50:53;;;;;;;1.15;1.05;;;22.00;99.90;;;;;;5054817;28;20094;-72
2022/07/06 05:53:18;;;;;;;1.10;1.10;;;22.20;99.60;;;;;;5054685;28;20135;-72
2022/07/06 05:55:45;;;;;;;1.35;1.25;;;22.30;99.50;;;;;;5054255;28;20710;-71
2022/07/06 05:58:10;;;;;;;1.20;1.08;;;22.40;99.50;;;;;;5055136;28;20487;-71
2022/07/06 06:00:36;;;;;;;2.47;1.30;;;22.50;99.90;;;;;;5055516;28;20045;-71
2022/07/06 06:03:01;;;;;;;1.80;1.27;;;22.60;99.90;;;;;;5052637;28;20052;-72
2022/07/06 06:05:27;;;;;;;1.33;1.20;;;22.70;99.60;;;;;;5056379;28;20512;-70
2022/07/06 06:07:53;;;;;;;2.72;1.40;;;22.70;98.80;;;;;;5039641;28;20122;-70
2022/07/06 06:10:21;;;;;;;1.58;1.48;;;22.70;99.20;;;;;;5051889;28;20028;-69
2022/07/06 06:12:47;;;;;;;1.30;1.20;;;22.80;98.30;;;;;;5053060;28;20131;-70
2022/07/06 06:15:13;;;;;;;3.05;1.20;;;22.90;97.90;;;;;;5055397;28;20040;-71
2022/07/06 06:17:39;;;;;;;2.67;1.30;;;22.90;98.00;;;;;;5048554;28;20063;-70
2022/07/06 06:20:07;;;;;;;2.30;1.20;;;23.00;98.10;;;;;;5054851;28;20032;-71
2022/07/06 06:22:45;;;;;;;1.08;1.08;;;23.20;98.40;;;;;;5050939;28;20032;-69
2022/07/06 06:25:11;;;;;;;1.33;1.30;;;23.20;97.40;;;;;;5054655;28;20099;-72
2022/07/06 06:27:37;;;;;;;1.23;1.13;;;23.30;97.40;;;;;;5047056;28;20127;-71
2022/07/06 06:30:03;;;;;;;1.30;1.20;;;23.30;96.80;;;;;;5045920;28;20479;-71
2022/07/06 06:32:29;;;;;;;1.70;1.00;;;23.30;96.70;;;;;;5053588;28;20131;-72
2022/07/06 06:34:55;;;;;;;1.13;1.13;;;23.30;96.80;;;;;;5059384;28;20151;-68
2022/07/06 06:37:20;;;;;;;2.28;1.20;;;23.30;96.70;;;;;;5058275;28;20033;-71
2022/07/06 06:39:46;;;;;;;1.23;0.88;;;23.20;96.20;;;;;;5049153;28;20049;-71
2022/07/06 06:42:11;;;;;;;2.67;1.33;;;23.20;96.10;;;;;;5056288;28;20102;-71
2022/07/06 06:44:37;;;;;;;3.75;1.33;;;23.30;96.30;;;;;;5055095;28;20037;-72
2022/07/06 06:47:03;;;;;;;1.30;1.20;;;23.30;95.90;;;;;;5048896;28;20063;-72
2022/07/06 06:49:29;;;;;;;1.17;1.00;;;23.30;96.10;;;;;;5054893;28;20028;-73
2022/07/06 06:51:54;;;;;;;1.23;1.00;;;23.40;96.40;;;;;;5043547;28;20063;-71
2022/07/06 06:54:20;;;;;;;1.35;1.25;;;23.40;95.20;;;;;;5055406;28;20059;-71
2022/07/06 06:56:46;;;;;;;1.42;1.33;;;23.40;95.90;;;;;;5057237;28;20161;-71
2022/07/06 06:59:11;;;;;;;4.85;1.52;;;23.50;95.90;;;;;;5050044;28;20044;-72
2022/07/06 07:01:37;;;;;;;2.25;1.20;;;23.60;95.50;;;;;;5043787;28;20612;-71
2022/07/06 07:04:03;;;;;;;1.20;1.10;;;23.60;95.60;;;;;;5049080;28;20045;-72
2022/07/06 07:06:28;;;;;;;1.38;1.27;;;23.80;95.60;;;;;;5055748;28;20044;-71
2022/07/06 07:08:55;;;;;;;1.60;1.40;;;23.90;95.00;;;;;;5056623;28;20040;-71
2022/07/06 07:11:21;;;;;;;8.75;1.45;;;24.00;95.80;;;;;;5056460;28;20043;-72
2022/07/06 07:13:47;;;;;;;1.73;1.00;;;23.90;94.80;;;;;;5049989;28;20056;-72
2022/07/06 07:16:12;;;;;;;1.02;1.02;;;24.00;93.80;;;;;;5046906;28;20028;-72
2022/07/06 07:18:38;;;;;;;1.05;0.98;;;23.90;94.60;;;;;;5046988;28;20483;-72
2022/07/06 07:21:04;;;;;;;3.08;1.20;;;23.90;93.10;;;;;;5052949;28;20060;-71
2022/07/06 07:23:30;;;;;;;1.58;1.00;;;24.00;92.30;;;;;;5045412;28;20047;-71
2022/07/06 07:59:47;;;;;;;1.40;1.30;;;24.80;92.20;;;;;;5010273;28;20056;-72
2022/07/06 08:02:13;;;;;;;1.33;1.08;;;25.00;89.80;;;;;;5072538;28;20040;-70
2022/07/06 08:04:39;;;;;;;1.30;1.20;;;25.00;90.30;;;;;;5073121;28;20625;-70
2022/07/06 08:07:04;;;;;;;4.10;1.25;;;25.00;88.40;;;;;;5055903;28;20244;-69
2022/07/06 08:09:30;;;;;;;1.50;1.40;;;25.10;86.90;;;;;;5063586;28;20043;-70
2022/07/06 08:11:56;;;;;;;1.67;1.48;;;25.10;88.60;;;;;;5068224;28;20044;-70
2022/07/06 08:14:22;;;;;;;1.70;1.60;;;25.20;89.40;;;;;;5054984;28;20058;-70
2022/07/06 08:16:47;;;;;;;1.88;1.42;;;25.30;89.50;;;;;;5070693;28;20028;-69
2022/07/06 08:19:14;;;;;;;2.22;1.70;;;25.50;88.80;;;;;;5069672;28;20056;-70
2022/07/06 08:21:40;;;;;;;1.55;1.45;;;25.60;86.80;;;;;;5073877;28;20031;-70
2022/07/06 08:24:07;;;;;;;2.30;1.70;;;25.60;89.20;;;;;;5072315;28;20035;-71
2022/07/06 08:26:33;;;;;;;1.77;1.67;;;25.40;88.20;;;;;;5056535;28;20048;-71
2022/07/06 08:28:58;;;;;;;1.98;1.27;;;25.40;85.80;;;;;;5071669;28;20103;-71
2022/07/06 08:31:25;;;;;;;3.50;1.45;;;25.50;85.90;;;;;;5066245;28;20036;-71
2022/07/06 08:33:53;;;;;;;1.50;1.40;;;25.60;86.30;;;;;;5072726;28;20139;-71
2022/07/06 08:36:19;;;;;;;1.38;1.27;;;25.60;81.30;;;;;;5073454;28;20457;-71
2022/07/06 08:38:44;;;;;;;2.13;1.45;;;25.50;84.80;;;;;;5063466;28;20999;-74
2022/07/06 08:41:11;;;;;;;2.05;1.73;;;25.50;87.50;;;;;;5064802;28;20032;-69
2022/07/06 08:43:36;;;;;;;2.08;1.88;;;25.70;88.50;;;;;;5066503;28;20406;-70
2022/07/06 08:46:03;;;;;;;2.10;1.95;;;25.80;85.20;;;;;;5076668;28;20039;-70
2022/07/06 08:48:37;;;;;;;2.17;1.95;;;25.80;85.60;;;;;;5071197;28;20047;-70
2022/07/06 08:51:05;;;;;;;2.90;2.25;;;25.80;85.50;;;;;;5062604;28;20059;-70
2022/07/06 08:53:30;;;;;;;2.92;2.00;;;25.80;88.20;;;;;;5062391;28;20272;-69
2022/07/06 08:55:56;;;;;;;4.35;2.05;;;25.80;84.10;;;;;;5066721;28;20471;-69
2022/07/06 08:58:26;;;;;;;1.73;1.63;;;25.60;87.10;;;;;;5064643;28;20036;-71
2022/07/06 09:00:53;;;;;;;2.05;1.85;;;25.50;83.70;;;;;;5063130;28;20738;-71
2022/07/06 09:03:19;;;;;;;2.80;2.33;;;25.60;87.60;;;;;;5053151;28;20055;-71
2022/07/06 09:05:46;;;;;;;2.25;2.10;;;25.60;86.30;;;;;;5032421;28;20070;-72
2022/07/06 09:08:13;;;;;;;2.30;2.20;;;25.50;86.90;;;;;;5041102;28;20040;-71
2022/07/06 09:10:39;;;;;;;3.67;2.15;;;25.50;86.40;;;;;;5048921;28;20130;-72
2022/07/06 09:13:06;;;;;;;2.45;2.25;;;25.60;85.20;;;;;;5052994;28;20507;-72
2022/07/06 09:15:33;;;;;;;2.33;2.13;;;25.80;84.90;;;;;;5048202;28;20116;-71
2022/07/06 09:17:59;;;;;;;2.70;1.85;;;25.70;86.00;;;;;;5050470;28;20036;-70
2022/07/06 09:20:25;;;;;;;3.63;2.05;;;25.90;84.20;;;;;;5048079;28;20047;-71
2022/07/06 09:22:50;;;;;;;2.30;2.20;;;26.10;82.80;;;;;;5051808;28;20048;-70
2022/07/06 09:25:16;;;;;;;2.38;2.13;;;26.10;82.50;;;;;;5045522;28;20535;-69
2022/07/06 09:27:49;;;;;;;4.03;1.67;;;26.00;80.70;;;;;;5037477;28;20037;-70
2022/07/06 09:30:16;;;;;;;5.72;2.15;;;26.10;78.50;;;;;;5055077;28;20043;-68
2022/07/06 09:32:43;;;;;;;3.03;2.03;;;26.10;76.70;;;;;;5053381;28;20040;-69
2022/07/06 09:35:21;;;;;;;2.75;2.30;;;26.00;76.90;;;;;;5050382;28;20041;-70
2022/07/06 09:37:47;;;;;;;4.18;2.00;;;26.00;79.50;;;;;;5056904;28;20060;-70
2022/07/06 09:40:18;;;;;;;4.32;2.25;;;26.00;76.50;;;;;;5050792;28;20029;-69
2022/07/06 09:42:44;;;;;;;3.85;2.00;;;26.00;78.20;;;;;;5059410;28;20111;-70
2022/07/06 09:45:09;;;;;;;3.33;2.00;;;26.00;75.40;;;;;;5053967;28;20489;-70
2022/07/06 09:47:37;;;;;;;7.57;1.70;;;26.10;74.20;;;;;;5047593;28;20047;-71
2022/07/06 09:50:05;;;;;;;2.95;1.77;;;26.30;76.80;;;;;;5044235;28;20028;-69
2022/07/06 09:52:34;;;;;;;2.30;2.03;;;26.40;74.00;;;;;;5045965;28;20079;-69
2022/07/06 09:55:00;;;;;;;2.97;1.75;;;26.50;74.40;;;;;;5052644;28;20045;-71
2022/07/06 09:57:25;;;;;;;1.88;1.77;;;26.50;69.50;;;;;;5047825;28;20029;-70
2022/07/06 09:59:52;;;;;;;1.92;1.58;;;26.40;72.60;;;;;;5053579;28;20547;-69
2022/07/06 10:02:20;;;;;;;4.45;1.70;;;26.50;69.90;;;;;;5062304;28;20127;-70
2022/07/06 10:04:46;;;;;;;2.40;1.55;;;26.70;72.50;;;;;;5074361;28;20038;-69
2022/07/06 10:07:13;;;;;;;1.20;1.10;;;26.80;65.00;;;;;;5057884;28;20032;-70
2022/07/06 10:09:40;;;;;;;1.90;1.30;;;26.80;64.00;;;;;;5070820;28;20036;-69
2022/07/06 10:12:12;;;;;;;1.60;1.50;;;26.90;65.70;;;;;;5066933;28;20061;-69
2022/07/06 10:14:39;;;;;;;;;;;27.00;64.20;;;;;;5071796;28;20043;-70
2022/07/06 10:17:05;;;;;;;1.20;1.10;;;26.90;65.90;;;;;;5075253;28;19912;-70
2022/07/06 10:19:32;;;;;;;2.97;1.77;;;27.00;62.70;;;;;;5063388;28;20090;-71
2022/07/06 10:22:01;;;;;;;2.63;1.38;;;27.00;66.70;;;;;;5050426;28;20759;-70
2022/07/06 10:24:28;;;;;;;1.80;1.30;;;27.10;64.50;;;;;;5072724;28;20637;-70
2022/07/06 10:26:55;;;;;;;1.75;1.23;;;27.30;65.30;;;;;;5068889;28;20032;-70
2022/07/06 10:29:21;;;;;;;3.08;1.40;;;27.40;63.90;;;;;;5067674;28;20476;-69
2022/07/06 10:31:48;;;;;;;1.67;1.20;;;27.40;62.60;;;;;;5070729;28;20028;-69
2022/07/06 10:34:18;;;;;;;1.70;1.17;;;27.50;62.90;;;;;;5067354;28;20548;-68
2022/07/06 10:36:47;;;;;;;2.53;1.33;;;27.40;59.60;;;;;;5063349;28;20486;-69
2022/07/06 10:41:58;;;;;;;1.75;1.55;;;27.50;60.50;;;;;;5067163;28;20043;-69
2022/07/06 10:44:26;;;;;;;5.47;1.40;;;27.50;58.90;;;;;;5066613;28;21599;-68
2022/07/06 10:46:56;;;;;;;2.33;1.48;;;27.50;59.00;;;;;;5059953;28;20544;-68
2022/07/06 10:49:24;;;;;;;1.65;1.35;;;27.40;56.70;;;;;;5041302;28;20093;-69
2022/07/06 10:51:50;;;;;;;1.58;1.40;;;27.40;58.30;;;;;;5064922;28;20026;-69
2022/07/06 10:54:18;;;;;;;1.88;1.30;;;27.50;57.20;;;;;;5072463;28;20059;-70
2022/07/06 10:56:46;;;;;;;1.20;1.10;;;27.40;55.90;;;;;;5074061;28;20029;-70
2022/07/06 10:59:23;;;;;;;1.17;1.05;;;27.40;57.50;;;;;;5074509;28;20047;-69
2022/07/06 11:02:18;;;;;;;1.52;1.20;;;27.40;56.30;;;;;;5037694;28;20508;-71
2022/07/06 11:04:48;;;;;;;1.73;1.55;;;27.50;55.50;;;;;;5035131;28;20049;-73
2022/07/06 11:07:16;;;;;;;1.55;1.45;;;27.60;57.60;;;;;;5053500;28;20075;-71
2022/07/06 11:09:57;;;;;;;1.38;1.27;;;27.80;56.90;;;;;;5052793;28;21603;-71
2022/07/06 11:12:23;;;;;;;1.55;1.45;;;27.90;55.10;;;;;;5045926;28;20604;-69
2022/07/06 11:14:51;;;;;;;3.08;1.35;;;27.80;54.10;;;;;;5042913;28;20049;-68
2022/07/06 11:17:17;;;;;;;7.43;1.60;;;27.90;57.10;;;;;;5047597;28;20029;-69
2022/07/06 11:20:10;;;;;;;4.28;1.52;;;28.10;56.20;;;;;;5051722;28;20032;-70
2022/07/06 11:22:39;;;;;;;1.60;1.50;;;28.20;55.00;;;;;;5048062;28;20036;-67
2022/07/06 11:25:06;;;;;;;5.55;1.33;;;28.10;54.80;;;;;;5049539;28;20040;-69
2022/07/06 11:27:33;;;;;;;3.95;1.48;;;28.00;51.20;;;;;;5050560;28;21223;-68
2022/07/06 11:29:59;;;;;;;2.05;1.38;;;28.10;52.80;;;;;;5049358;28;20048;-68
2022/07/06 11:32:26;;;;;;;2.00;1.50;;;28.10;52.00;;;;;;5057385;28;20040;-70
2022/07/06 11:34:53;;;;;;;1.40;1.30;;;28.10;54.10;;;;;;5048932;28;20064;-69
2022/07/06 11:37:20;;;;;;;1.73;1.60;;;28.00;52.40;;;;;;5047233;28;20020;-68
2022/07/06 11:39:47;;;;;;;2.75;1.40;;;28.00;54.10;;;;;;5030434;28;20045;-70
2022/07/06 11:42:16;;;;;;;2.67;1.35;;;28.00;52.90;;;;;;5046790;28;20131;-70
2022/07/06 11:44:43;;;;;;;1.70;1.35;;;28.00;52.80;;;;;;5045483;28;20051;-68
2022/07/06 11:47:09;;;;;;;2.20;1.17;;;28.10;50.80;;;;;;5027450;28;20071;-68
2022/07/06 11:49:38;;;;;;;2.05;1.40;;;28.10;51.00;;;;;;5047858;28;20044;-68
2022/07/06 11:52:07;;;;;;;1.60;1.40;;;28.10;49.10;;;;;;5050391;28;20032;-69
2022/07/06 11:54:33;;;;;;;1.40;1.30;;;28.10;49.40;;;;;;5045040;28;20037;-69
2022/07/06 11:57:00;;;;;;;6.15;1.33;;;28.10;52.50;;;;;;5049904;28;20592;-71
2022/07/06 11:59:37;;;;;;;1.83;1.73;;;28.10;51.90;;;;;;5048769;28;20028;-68
2022/07/06 12:02:05;;;;;;;1.67;1.58;;;28.10;49.30;;;;;;5060307;28;20047;-69
2022/07/06 12:04:33;;;;;;;1.60;1.50;;;28.10;49.90;;;;;;5066444;28;20048;-70
2022/07/06 12:07:11;;;;;;;5.90;1.95;;;27.90;49.20;;;;;;5073539;28;20439;-69
2022/07/06 12:09:40;;;;;;;1.42;1.35;;;27.70;48.80;;;;;;5058903;28;20806;-70
2022/07/06 12:12:07;;;;;;;1.70;1.60;;;27.80;52.30;;;;;;5047993;28;20752;-70
2022/07/06 12:14:34;;;;;;;2.33;2.05;;;27.90;51.90;;;;;;5060288;28;21270;-69
2022/07/06 12:17:11;;;;;;;4.57;2.08;;;28.10;51.70;;;;;;5060857;28;20079;-69
2022/07/06 12:19:38;;;;;;;2.42;2.20;;;28.20;51.00;;;;;;5076002;28;20610;-67
2022/07/06 12:22:04;;;;;;;2.17;1.98;;;28.10;50.10;;;;;;5065231;28;20515;-68
2022/07/06 12:24:32;;;;;;;2.15;1.70;;;27.90;50.40;;;;;;5061693;28;20039;-70
2022/07/06 12:26:58;;;;;;;8.55;2.33;;;27.80;51.80;;;;;;5053310;28;20044;-70
2022/07/06 12:29:25;;;;;;;2.22;2.03;;;27.80;51.20;;;;;;5063794;28;20047;-70
2022/07/06 12:31:52;;;;;;;2.17;1.98;;;27.70;50.90;;;;;;5069202;28;20044;-70
2022/07/06 12:34:25;;;;;;;2.30;2.10;;;27.50;53.00;;;;;;5061970;28;20067;-70
2022/07/06 12:36:56;;;;;;;2.60;2.15;;;27.60;54.00;;;;;;5067943;28;20059;-71
2022/07/06 12:39:27;;;;;;;2.00;1.90;;;27.80;52.30;;;;;;5067068;28;20424;-71
2022/07/06 12:41:53;;;;;;;4.43;2.45;;;27.90;51.60;;;;;;5065561;28;20546;-70
2022/07/06 12:44:24;;;;;;;3.20;1.83;;;27.90;51.80;;;;;;5069599;28;20101;-69
2022/07/06 12:47:01;;;;;;;4.80;2.10;;;27.90;52.00;;;;;;5072058;28;20059;-71
2022/07/06 12:49:27;;;;;;;2.55;2.35;;;27.90;52.20;;;;;;5073310;28;20574;-69
2022/07/06 12:51:53;;;;;;;2.67;2.13;;;27.90;52.90;;;;;;5073453;28;20068;-70
2022/07/06 12:54:20;;;;;;;5.40;2.58;;;28.00;52.30;;;;;;5069887;28;20741;-69
2022/07/06 12:57:07;;;;;;;3.60;2.20;;;28.00;51.90;;;;;;5070777;28;20057;-68
2022/07/06 12:59:36;;;;;;;2.58;2.30;;;27.90;52.00;;;;;;5056809;28;20131;-69
2022/07/06 13:02:01;;;;;;;1.95;1.85;;;27.80;52.90;;;;;;5067246;28;20043;-71
2022/07/06 13:04:29;;;;;;;3.97;2.70;;;27.70;53.90;;;;;;5071281;28;20040;-68
2022/07/06 13:06:55;;;;;;;2.40;2.20;;;27.80;53.00;;;;;;5073648;28;20036;-72
2022/07/06 13:09:21;;;;;;;5.43;3.05;;;27.80;55.30;;;;;;5066533;28;20036;-70
2022/07/06 13:11:48;;;;;;;3.42;2.90;;;27.80;55.60;;;;;;5065439;28;20042;-72
2022/07/06 13:14:16;;;;;;;5.28;3.13;;;27.80;57.20;;;;;;5072126;28;20490;-70
2022/07/06 13:16:42;;;;;;;3.45;3.15;;;27.70;56.40;;;;;;5075580;28;20107;-70
2022/07/06 13:19:08;;;;;;;3.35;3.15;;;27.60;57.50;;;;;;5073977;28;20086;-75
2022/07/06 13:21:35;;;;;;;4.20;3.50;;;27.40;58.20;;;;;;5071348;28;20101;-73
2022/07/06 13:24:01;;;;;;;5.47;3.55;;;27.30;58.10;;;;;;5076715;28;20037;-67
2022/07/06 13:26:27;;;;;;;3.55;2.72;;;27.30;57.60;;;;;;5055095;28;20062;-67
2022/07/06 13:28:53;;;;;;;4.53;3.13;;;27.30;55.30;;;;;;5075375;28;20044;-67